sensor_id;sensor_type;location;lat;lon;timestamp;pressure;altitude;pressure_sealevel;temperature;humidity
70250;BME280;57644;48.416;-123.374;2023-03-02T00:02:29;101826.00;;;-1.33;87.97
70250;BME280;57644;48.416;-123.374;2023-03-02T00:05:01;101817.34;;;-1.26;88.21
70250;BME280;57644;48.416;-123.374;2023-03-02T00:07:33;101808.99;;;-1.23;86.79
70250;BME280;57644;48.416;-123.374;2023-03-02T00:10:02;101810.20;;;-1.36;85.58
70250;BME280;57644;48.416;-123.374;2023-03-02T00:12:32;101811.96;;;-1.30;84.32
70250;BME280;57644;48.416;-123.374;2023-03-02T00:15:03;101810.18;;;-1.24;83.15
70250;BME280;57644;48.416;-123.374;2023-03-02T00:17:32;101813.78;;;-1.28;82.82
70250;BME280;57644;48.416;-123.374;2023-03-02T00:20:03;101821.89;;;-1.26;83.26
70250;BME280;57644;48.416;-123.374;2023-03-02T00:22:33;101819.54;;;-1.24;85.46
70250;BME280;57644;48.416;-123.374;2023-03-02T00:25:05;101816.34;;;-1.44;87.36
70250;BME280;57644;48.416;-123.374;2023-03-02T00:27:35;101823.92;;;-1.35;88.07
70250;BME280;57644;48.416;-123.374;2023-03-02T00:30:06;101820.83;;;-1.34;89.51
70250;BME280;57644;48.416;-123.374;2023-03-02T00:32:35;101820.89;;;-1.59;89.34
70250;BME280;57644;48.416;-123.374;2023-03-02T00:35:07;101816.37;;;-1.62;89.91
70250;BME280;57644;48.416;-123.374;2023-03-02T00:37:37;101812.17;;;-1.89;89.74
70250;BME280;57644;48.416;-123.374;2023-03-02T00:40:09;101808.79;;;-1.99;90.54
70250;BME280;57644;48.416;-123.374;2023-03-02T00:42:38;101805.58;;;-1.84;90.48
70250;BME280;57644;48.416;-123.374;2023-03-02T00:45:09;101805.54;;;-2.07;91.79
70250;BME280;57644;48.416;-123.374;2023-03-02T00:47:39;101808.54;;;-2.02;91.97
70250;BME280;57644;48.416;-123.374;2023-03-02T00:50:10;101808.39;;;-1.89;92.11
70250;BME280;57644;48.416;-123.374;2023-03-02T00:52:40;101808.36;;;-1.95;92.48
70250;BME280;57644;48.416;-123.374;2023-03-02T00:55:11;101808.73;;;-2.03;92.57
70250;BME280;57644;48.416;-123.374;2023-03-02T00:57:41;101809.23;;;-1.89;92.21
70250;BME280;57644;48.416;-123.374;2023-03-02T01:00:12;101809.44;;;-1.81;91.99
70250;BME280;57644;48.416;-123.374;2023-03-02T01:02:42;101810.78;;;-1.77;90.70
70250;BME280;57644;48.416;-123.374;2023-03-02T01:05:14;101816.80;;;-1.78;90.73
70250;BME280;57644;48.416;-123.374;2023-03-02T01:07:45;101815.85;;;-1.98;91.40
70250;BME280;57644;48.416;-123.374;2023-03-02T01:10:15;101818.12;;;-1.88;91.44
70250;BME280;57644;48.416;-123.374;2023-03-02T01:12:45;101820.72;;;-1.79;91.11
70250;BME280;57644;48.416;-123.374;2023-03-02T01:15:16;101825.57;;;-1.71;91.03
70250;BME280;57644;48.416;-123.374;2023-03-02T01:17:46;101827.73;;;-1.70;92.04
70250;BME280;57644;48.416;-123.374;2023-03-02T01:20:17;101829.00;;;-1.63;92.45
70250;BME280;57644;48.416;-123.374;2023-03-02T01:22:47;101823.42;;;-1.95;94.01
70250;BME280;57644;48.416;-123.374;2023-03-02T01:25:19;101814.60;;;-1.93;94.14
70250;BME280;57644;48.416;-123.374;2023-03-02T01:27:49;101821.74;;;-1.85;94.07
70250;BME280;57644;48.416;-123.374;2023-03-02T01:30:19;101823.09;;;-1.92;94.59
70250;BME280;57644;48.416;-123.374;2023-03-02T01:32:49;101807.20;;;-1.88;95.21
70250;BME280;57644;48.416;-123.374;2023-03-02T01:35:25;101798.46;;;-1.97;96.40
70250;BME280;57644;48.416;-123.374;2023-03-02T01:37:50;101797.17;;;-1.87;96.53
70250;BME280;57644;48.416;-123.374;2023-03-02T01:40:21;101796.85;;;-1.85;95.71
70250;BME280;57644;48.416;-123.374;2023-03-02T01:42:57;101800.96;;;-1.79;95.95
70250;BME280;57644;48.416;-123.374;2023-03-02T01:47:52;101806.44;;;-1.88;95.96
70250;BME280;57644;48.416;-123.374;2023-03-02T01:50:25;101802.45;;;-1.78;95.74
70250;BME280;57644;48.416;-123.374;2023-03-02T01:52:55;101805.37;;;-1.73;95.72
70250;BME280;57644;48.416;-123.374;2023-03-02T01:55:27;101809.83;;;-1.77;96.06
70250;BME280;57644;48.416;-123.374;2023-03-02T01:57:56;101813.38;;;-1.80;96.00
70250;BME280;57644;48.416;-123.374;2023-03-02T02:00:30;101817.81;;;-1.86;96.82
70250;BME280;57644;48.416;-123.374;2023-03-02T02:02:59;101819.50;;;-1.83;96.76
70250;BME280;57644;48.416;-123.374;2023-03-02T02:05:27;101817.75;;;-1.87;97.57
70250;BME280;57644;48.416;-123.374;2023-03-02T02:07:58;101819.14;;;-1.88;98.48
70250;BME280;57644;48.416;-123.374;2023-03-02T02:10:29;101817.16;;;-2.01;99.51
70250;BME280;57644;48.416;-123.374;2023-03-02T02:12:58;101815.47;;;-2.02;100.00
70250;BME280;57644;48.416;-123.374;2023-03-02T02:15:30;101817.73;;;-2.08;100.00
70250;BME280;57644;48.416;-123.374;2023-03-02T02:17:59;101817.14;;;-2.05;100.00
70250;BME280;57644;48.416;-123.374;2023-03-02T02:20:34;101821.23;;;-2.10;100.00
70250;BME280;57644;48.416;-123.374;2023-03-02T02:23:07;101829.00;;;-2.10;100.00
70250;BME280;57644;48.416;-123.374;2023-03-02T02:25:41;101836.64;;;-2.06;100.00
70250;BME280;57644;48.416;-123.374;2023-03-02T02:28:02;101830.55;;;-2.01;100.00
70250;BME280;57644;48.416;-123.374;2023-03-02T02:30:42;101828.95;;;-2.03;100.00
70250;BME280;57644;48.416;-123.374;2023-03-02T02:33:02;101833.84;;;-1.96;100.00
70250;BME280;57644;48.416;-123.374;2023-03-02T02:35:38;101826.53;;;-2.00;100.00
70250;BME280;57644;48.416;-123.374;2023-03-02T02:38:06;101820.68;;;-1.96;100.00
70250;BME280;57644;48.416;-123.374;2023-03-02T02:40:46;101825.50;;;-1.95;100.00
70250;BME280;57644;48.416;-123.374;2023-03-02T02:43:05;101830.17;;;-1.92;100.00
70250;BME280;57644;48.416;-123.374;2023-03-02T02:45:35;101829.58;;;-1.94;100.00
70250;BME280;57644;48.416;-123.374;2023-03-02T02:48:07;101825.03;;;-1.92;100.00
70250;BME280;57644;48.416;-123.374;2023-03-02T02:50:36;101822.47;;;-1.92;100.00
70250;BME280;57644;48.416;-123.374;2023-03-02T02:53:12;101818.53;;;-1.97;100.00
70250;BME280;57644;48.416;-123.374;2023-03-02T02:55:38;101818.57;;;-2.01;100.00
70250;BME280;57644;48.416;-123.374;2023-03-02T02:58:18;101820.93;;;-1.97;100.00
70250;BME280;57644;48.416;-123.374;2023-03-02T03:00:38;101816.26;;;-2.04;100.00
70250;BME280;57644;48.416;-123.374;2023-03-02T03:03:18;101799.22;;;-2.01;100.00
70250;BME280;57644;48.416;-123.374;2023-03-02T03:05:39;101786.52;;;-2.02;100.00
70250;BME280;57644;48.416;-123.374;2023-03-02T03:10:41;101786.50;;;-2.12;100.00
70250;BME280;57644;48.416;-123.374;2023-03-02T03:13:11;101786.03;;;-2.15;100.00
70250;BME280;57644;48.416;-123.374;2023-03-02T03:15:42;101780.63;;;-2.15;100.00
70250;BME280;57644;48.416;-123.374;2023-03-02T03:18:12;101777.64;;;-2.13;100.00
70250;BME280;57644;48.416;-123.374;2023-03-02T03:20:42;101777.01;;;-2.11;100.00
70250;BME280;57644;48.416;-123.374;2023-03-02T03:23:13;101776.08;;;-2.06;100.00
70250;BME280;57644;48.416;-123.374;2023-03-02T03:25:43;101774.63;;;-2.06;100.00
70250;BME280;57644;48.416;-123.374;2023-03-02T03:28:14;101771.07;;;-2.05;100.00
70250;BME280;57644;48.416;-123.374;2023-03-02T03:30:45;101771.78;;;-2.07;100.00
70250;BME280;57644;48.416;-123.374;2023-03-02T03:33:15;101766.34;;;-2.15;100.00
70250;BME280;57644;48.416;-123.374;2023-03-02T03:35:45;101757.40;;;-2.14;100.00
70250;BME280;57644;48.416;-123.374;2023-03-02T03:38:16;101759.30;;;-2.07;100.00
70250;BME280;57644;48.416;-123.374;2023-03-02T03:40:46;101758.48;;;-2.07;100.00
70250;BME280;57644;48.416;-123.374;2023-03-02T03:43:17;101755.96;;;-2.12;100.00
70250;BME280;57644;48.416;-123.374;2023-03-02T03:45:47;101750.89;;;-2.11;100.00
70250;BME280;57644;48.416;-123.374;2023-03-02T03:48:18;101746.13;;;-2.11;100.00
70250;BME280;57644;48.416;-123.374;2023-03-02T03:50:48;101751.46;;;-2.12;100.00
70250;BME280;57644;48.416;-123.374;2023-03-02T03:53:18;101754.21;;;-2.05;100.00
70250;BME280;57644;48.416;-123.374;2023-03-02T03:55:49;101759.94;;;-2.04;100.00
70250;BME280;57644;48.416;-123.374;2023-03-02T03:58:20;101757.31;;;-2.05;100.00
70250;BME280;57644;48.416;-123.374;2023-03-02T04:00:50;101753.60;;;-2.06;100.00
70250;BME280;57644;48.416;-123.374;2023-03-02T04:03:21;101746.55;;;-2.18;100.00
70250;BME280;57644;48.416;-123.374;2023-03-02T04:05:51;101738.79;;;-2.14;100.00
70250;BME280;57644;48.416;-123.374;2023-03-02T04:08:22;101730.20;;;-2.12;100.00
70250;BME280;57644;48.416;-123.374;2023-03-02T04:10:52;101726.46;;;-2.12;100.00
70250;BME280;57644;48.416;-123.374;2023-03-02T04:13:23;101724.53;;;-2.10;100.00
70250;BME280;57644;48.416;-123.374;2023-03-02T04:15:54;101714.29;;;-2.14;100.00
70250;BME280;57644;48.416;-123.374;2023-03-02T04:18:24;101706.51;;;-2.13;100.00
70250;BME280;57644;48.416;-123.374;2023-03-02T04:20:54;101692.82;;;-2.12;100.00
70250;BME280;57644;48.416;-123.374;2023-03-02T04:23:25;101690.73;;;-2.10;100.00
70250;BME280;57644;48.416;-123.374;2023-03-02T04:25:55;101678.76;;;-2.10;100.00
70250;BME280;57644;48.416;-123.374;2023-03-02T04:28:26;101671.94;;;-2.11;100.00
70250;BME280;57644;48.416;-123.374;2023-03-02T04:30:56;101680.39;;;-2.12;100.00
70250;BME280;57644;48.416;-123.374;2023-03-02T04:33:26;101674.84;;;-2.13;100.00
70250;BME280;57644;48.416;-123.374;2023-03-02T04:35:57;101672.45;;;-2.11;100.00
70250;BME280;57644;48.416;-123.374;2023-03-02T04:38:28;101663.22;;;-2.12;100.00
70250;BME280;57644;48.416;-123.374;2023-03-02T04:40:59;101660.54;;;-2.14;100.00
70250;BME280;57644;48.416;-123.374;2023-03-02T04:43:28;101656.13;;;-2.10;100.00
70250;BME280;57644;48.416;-123.374;2023-03-02T04:45:58;101651.09;;;-2.14;100.00
70250;BME280;57644;48.416;-123.374;2023-03-02T04:48:28;101648.11;;;-2.16;100.00
70250;BME280;57644;48.416;-123.374;2023-03-02T04:50:59;101647.63;;;-2.16;100.00
70250;BME280;57644;48.416;-123.374;2023-03-02T04:53:29;101638.02;;;-2.18;100.00
70250;BME280;57644;48.416;-123.374;2023-03-02T04:55:59;101634.03;;;-2.18;100.00
70250;BME280;57644;48.416;-123.374;2023-03-02T04:58:30;101632.48;;;-2.22;100.00
70250;BME280;57644;48.416;-123.374;2023-03-02T05:01:01;101626.21;;;-2.19;100.00
70250;BME280;57644;48.416;-123.374;2023-03-02T05:03:31;101632.02;;;-2.19;100.00
70250;BME280;57644;48.416;-123.374;2023-03-02T05:06:02;101628.12;;;-2.20;100.00
70250;BME280;57644;48.416;-123.374;2023-03-02T05:08:32;101626.11;;;-2.22;100.00
70250;BME280;57644;48.416;-123.374;2023-03-02T05:11:03;101620.64;;;-2.22;100.00
70250;BME280;57644;48.416;-123.374;2023-03-02T05:13:34;101616.23;;;-2.22;100.00
70250;BME280;57644;48.416;-123.374;2023-03-02T05:16:05;101617.90;;;-2.24;100.00
70250;BME280;57644;48.416;-123.374;2023-03-02T05:18:34;101616.17;;;-2.22;100.00
70250;BME280;57644;48.416;-123.374;2023-03-02T05:21:05;101597.61;;;-2.18;100.00
70250;BME280;57644;48.416;-123.374;2023-03-02T05:23:35;101590.81;;;-2.16;100.00
70250;BME280;57644;48.416;-123.374;2023-03-02T05:26:07;101593.25;;;-2.17;100.00
70250;BME280;57644;48.416;-123.374;2023-03-02T05:28:37;101585.29;;;-2.21;100.00
70250;BME280;57644;48.416;-123.374;2023-03-02T05:31:08;101583.85;;;-2.23;100.00
70250;BME280;57644;48.416;-123.374;2023-03-02T05:33:37;101581.16;;;-2.23;100.00
70250;BME280;57644;48.416;-123.374;2023-03-02T05:36:08;101582.09;;;-2.38;100.00
70250;BME280;57644;48.416;-123.374;2023-03-02T05:38:38;101583.03;;;-2.44;100.00
70250;BME280;57644;48.416;-123.374;2023-03-02T05:41:09;101581.56;;;-2.48;100.00
70250;BME280;57644;48.416;-123.374;2023-03-02T05:43:40;101577.69;;;-2.54;100.00
70250;BME280;57644;48.416;-123.374;2023-03-02T05:46:10;101569.76;;;-2.55;100.00
70250;BME280;57644;48.416;-123.374;2023-03-02T05:48:41;101569.04;;;-2.53;100.00
70250;BME280;57644;48.416;-123.374;2023-03-02T05:51:11;101564.59;;;-2.69;100.00
70250;BME280;57644;48.416;-123.374;2023-03-02T05:53:42;101550.30;;;-2.71;100.00
70250;BME280;57644;48.416;-123.374;2023-03-02T05:56:13;101549.28;;;-2.67;100.00
70250;BME280;57644;48.416;-123.374;2023-03-02T05:58:43;101548.71;;;-2.63;100.00
70250;BME280;57644;48.416;-123.374;2023-03-02T06:01:14;101538.06;;;-2.60;100.00
70250;BME280;57644;48.416;-123.374;2023-03-02T06:03:44;101541.57;;;-2.52;100.00
70250;BME280;57644;48.416;-123.374;2023-03-02T06:06:16;101547.28;;;-2.56;100.00
70250;BME280;57644;48.416;-123.374;2023-03-02T06:08:46;101555.75;;;-2.51;100.00
70250;BME280;57644;48.416;-123.374;2023-03-02T06:11:16;101558.37;;;-2.45;100.00
70250;BME280;57644;48.416;-123.374;2023-03-02T06:13:47;101564.64;;;-2.47;100.00
70250;BME280;57644;48.416;-123.374;2023-03-02T06:16:18;101548.33;;;-2.57;100.00
70250;BME280;57644;48.416;-123.374;2023-03-02T06:18:48;101546.70;;;-2.59;100.00
70250;BME280;57644;48.416;-123.374;2023-03-02T06:21:19;101537.77;;;-2.67;100.00
70250;BME280;57644;48.416;-123.374;2023-03-02T06:23:49;101536.30;;;-2.58;100.00
70250;BME280;57644;48.416;-123.374;2023-03-02T06:26:20;101532.89;;;-2.56;100.00
70250;BME280;57644;48.416;-123.374;2023-03-02T06:28:50;101533.72;;;-2.53;100.00
70250;BME280;57644;48.416;-123.374;2023-03-02T06:31:21;101525.66;;;-2.51;100.00
70250;BME280;57644;48.416;-123.374;2023-03-02T06:33:52;101519.97;;;-2.55;100.00
70250;BME280;57644;48.416;-123.374;2023-03-02T06:36:22;101515.26;;;-2.52;100.00
70250;BME280;57644;48.416;-123.374;2023-03-02T06:38:53;101510.62;;;-2.55;100.00
70250;BME280;57644;48.416;-123.374;2023-03-02T06:41:23;101504.45;;;-2.52;100.00
70250;BME280;57644;48.416;-123.374;2023-03-02T06:43:54;101497.20;;;-2.48;100.00
70250;BME280;57644;48.416;-123.374;2023-03-02T06:46:25;101496.44;;;-2.49;100.00
70250;BME280;57644;48.416;-123.374;2023-03-02T06:48:55;101488.98;;;-2.44;100.00
70250;BME280;57644;48.416;-123.374;2023-03-02T06:51:26;101490.21;;;-2.41;100.00
70250;BME280;57644;48.416;-123.374;2023-03-02T06:53:56;101468.01;;;-2.35;100.00
70250;BME280;57644;48.416;-123.374;2023-03-02T06:56:27;101469.52;;;-2.41;100.00
70250;BME280;57644;48.416;-123.374;2023-03-02T06:58:58;101458.98;;;-2.38;100.00
70250;BME280;57644;48.416;-123.374;2023-03-02T07:01:28;101448.17;;;-2.37;100.00
70250;BME280;57644;48.416;-123.374;2023-03-02T07:03:59;101451.11;;;-2.35;100.00
70250;BME280;57644;48.416;-123.374;2023-03-02T07:06:29;101446.39;;;-2.32;100.00
70250;BME280;57644;48.416;-123.374;2023-03-02T07:09:02;101443.35;;;-2.34;100.00
70250;BME280;57644;48.416;-123.374;2023-03-02T07:11:30;101428.19;;;-2.32;100.00
70250;BME280;57644;48.416;-123.374;2023-03-02T07:14:01;101411.86;;;-2.33;100.00
70250;BME280;57644;48.416;-123.374;2023-03-02T07:16:33;101426.15;;;-2.35;100.00
70250;BME280;57644;48.416;-123.374;2023-03-02T07:19:02;101415.42;;;-2.36;100.00
70250;BME280;57644;48.416;-123.374;2023-03-02T07:21:33;101404.52;;;-2.34;100.00
70250;BME280;57644;48.416;-123.374;2023-03-02T07:24:03;101403.80;;;-2.43;100.00
70250;BME280;57644;48.416;-123.374;2023-03-02T07:26:34;101405.25;;;-2.43;100.00
70250;BME280;57644;48.416;-123.374;2023-03-02T07:29:04;101401.57;;;-2.44;100.00
70250;BME280;57644;48.416;-123.374;2023-03-02T07:31:35;101386.86;;;-2.44;100.00
70250;BME280;57644;48.416;-123.374;2023-03-02T07:34:05;101365.10;;;-2.44;100.00
70250;BME280;57644;48.416;-123.374;2023-03-02T07:36:36;101361.23;;;-2.49;100.00
70250;BME280;57644;48.416;-123.374;2023-03-02T07:39:07;101361.63;;;-2.53;100.00
70250;BME280;57644;48.416;-123.374;2023-03-02T07:41:37;101338.78;;;-2.53;100.00
70250;BME280;57644;48.416;-123.374;2023-03-02T07:44:08;101328.53;;;-2.65;100.00
70250;BME280;57644;48.416;-123.374;2023-03-02T07:46:38;101309.51;;;-2.63;100.00
70250;BME280;57644;48.416;-123.374;2023-03-02T07:49:09;101301.55;;;-2.93;100.00
70250;BME280;57644;48.416;-123.374;2023-03-02T07:51:40;101292.74;;;-2.96;100.00
70250;BME280;57644;48.416;-123.374;2023-03-02T07:54:10;101286.68;;;-2.94;100.00
70250;BME280;57644;48.416;-123.374;2023-03-02T07:56:41;101277.85;;;-3.07;100.00
70250;BME280;57644;48.416;-123.374;2023-03-02T07:59:12;101270.17;;;-3.05;100.00
70250;BME280;57644;48.416;-123.374;2023-03-02T08:01:42;101266.37;;;-3.08;100.00
70250;BME280;57644;48.416;-123.374;2023-03-02T08:04:13;101258.75;;;-2.96;100.00
70250;BME280;57644;48.416;-123.374;2023-03-02T08:06:43;101237.84;;;-3.15;100.00
70250;BME280;57644;48.416;-123.374;2023-03-02T08:09:14;101231.92;;;-3.21;100.00
70250;BME280;57644;48.416;-123.374;2023-03-02T08:11:45;101223.99;;;-3.04;100.00
70250;BME280;57644;48.416;-123.374;2023-03-02T08:14:15;101208.56;;;-3.01;100.00
70250;BME280;57644;48.416;-123.374;2023-03-02T08:16:46;101210.97;;;-3.29;100.00
70250;BME280;57644;48.416;-123.374;2023-03-02T08:19:16;101210.16;;;-3.12;100.00
70250;BME280;57644;48.416;-123.374;2023-03-02T08:21:47;101189.72;;;-3.01;100.00
70250;BME280;57644;48.416;-123.374;2023-03-02T08:24:17;101179.91;;;-2.90;100.00
70250;BME280;57644;48.416;-123.374;2023-03-02T08:26:48;101187.92;;;-2.80;100.00
70250;BME280;57644;48.416;-123.374;2023-03-02T08:29:18;101186.35;;;-2.68;100.00
70250;BME280;57644;48.416;-123.374;2023-03-02T08:31:49;101181.55;;;-2.64;100.00
70250;BME280;57644;48.416;-123.374;2023-03-02T08:34:20;101185.94;;;-2.82;100.00
70250;BME280;57644;48.416;-123.374;2023-03-02T08:36:50;101178.84;;;-2.79;100.00
70250;BME280;57644;48.416;-123.374;2023-03-02T08:39:21;101175.37;;;-2.68;100.00
70250;BME280;57644;48.416;-123.374;2023-03-02T08:41:53;101164.86;;;-2.73;100.00
70250;BME280;57644;48.416;-123.374;2023-03-02T08:44:22;101159.03;;;-2.71;100.00
70250;BME280;57644;48.416;-123.374;2023-03-02T08:46:53;101163.21;;;-2.68;100.00
70250;BME280;57644;48.416;-123.374;2023-03-02T08:49:23;101167.25;;;-2.71;100.00
70250;BME280;57644;48.416;-123.374;2023-03-02T08:51:54;101164.52;;;-2.72;100.00
70250;BME280;57644;48.416;-123.374;2023-03-02T08:54:25;101162.61;;;-2.79;100.00
70250;BME280;57644;48.416;-123.374;2023-03-02T08:56:55;101158.33;;;-2.84;100.00
70250;BME280;57644;48.416;-123.374;2023-03-02T08:59:26;101157.34;;;-2.74;100.00
70250;BME280;57644;48.416;-123.374;2023-03-02T09:01:58;101155.73;;;-2.76;100.00
70250;BME280;57644;48.416;-123.374;2023-03-02T09:04:27;101148.27;;;-2.70;100.00
70250;BME280;57644;48.416;-123.374;2023-03-02T09:06:58;101143.46;;;-2.68;100.00
70250;BME280;57644;48.416;-123.374;2023-03-02T09:09:28;101152.08;;;-2.64;100.00
70250;BME280;57644;48.416;-123.374;2023-03-02T09:12:00;101148.34;;;-2.68;100.00
70250;BME280;57644;48.416;-123.374;2023-03-02T09:14:29;101145.13;;;-2.69;100.00
70250;BME280;57644;48.416;-123.374;2023-03-02T09:17:00;101137.09;;;-2.70;100.00
70250;BME280;57644;48.416;-123.374;2023-03-02T09:19:30;101137.38;;;-2.77;100.00
70250;BME280;57644;48.416;-123.374;2023-03-02T09:22:03;101134.24;;;-2.75;100.00
70250;BME280;57644;48.416;-123.374;2023-03-02T09:24:32;101134.17;;;-2.70;100.00
70250;BME280;57644;48.416;-123.374;2023-03-02T09:27:02;101135.61;;;-2.82;100.00
70250;BME280;57644;48.416;-123.374;2023-03-02T09:29:33;101135.19;;;-2.81;100.00
70250;BME280;57644;48.416;-123.374;2023-03-02T09:32:04;101129.39;;;-2.76;100.00
70250;BME280;57644;48.416;-123.374;2023-03-02T09:34:34;101118.79;;;-2.73;100.00
70250;BME280;57644;48.416;-123.374;2023-03-02T09:37:05;101115.37;;;-2.68;100.00
70250;BME280;57644;48.416;-123.374;2023-03-02T09:39:36;101111.59;;;-2.65;100.00
70250;BME280;57644;48.416;-123.374;2023-03-02T09:42:17;101096.65;;;-2.72;100.00
70250;BME280;57644;48.416;-123.374;2023-03-02T09:44:49;101096.84;;;-2.64;100.00
70250;BME280;57644;48.416;-123.374;2023-03-02T09:47:11;101099.52;;;-2.59;100.00
70250;BME280;57644;48.416;-123.374;2023-03-02T09:49:50;101096.54;;;-2.53;100.00
70250;BME280;57644;48.416;-123.374;2023-03-02T09:52:14;101091.95;;;-2.60;100.00
70250;BME280;57644;48.416;-123.374;2023-03-02T09:54:39;101080.43;;;-2.51;100.00
70250;BME280;57644;48.416;-123.374;2023-03-02T09:57:19;101080.79;;;-2.52;100.00
70250;BME280;57644;48.416;-123.374;2023-03-02T09:59:44;101047.14;;;-2.54;100.00
70250;BME280;57644;48.416;-123.374;2023-03-02T10:02:22;101042.21;;;-2.57;100.00
70250;BME280;57644;48.416;-123.374;2023-03-02T10:04:45;101044.30;;;-2.57;100.00
70250;BME280;57644;48.416;-123.374;2023-03-02T10:07:13;101044.16;;;-2.57;100.00
70250;BME280;57644;48.416;-123.374;2023-03-02T10:09:43;101035.86;;;-2.58;100.00
70250;BME280;57644;48.416;-123.374;2023-03-02T10:12:24;101023.14;;;-2.54;100.00
70250;BME280;57644;48.416;-123.374;2023-03-02T10:14:48;101026.68;;;-2.50;100.00
70250;BME280;57644;48.416;-123.374;2023-03-02T10:17:28;101019.59;;;-2.43;100.00
70250;BME280;57644;48.416;-123.374;2023-03-02T10:19:49;101020.55;;;-2.47;100.00
70250;BME280;57644;48.416;-123.374;2023-03-02T10:22:19;101016.46;;;-2.51;100.00
70250;BME280;57644;48.416;-123.374;2023-03-02T10:24:52;101009.01;;;-2.48;100.00
70250;BME280;57644;48.416;-123.374;2023-03-02T10:27:20;101010.68;;;-2.51;100.00
70250;BME280;57644;48.416;-123.374;2023-03-02T10:29:51;101010.14;;;-2.59;100.00
70250;BME280;57644;48.416;-123.374;2023-03-02T10:32:20;101008.71;;;-2.61;100.00
70250;BME280;57644;48.416;-123.374;2023-03-02T10:34:48;100999.30;;;-2.60;100.00
70250;BME280;57644;48.416;-123.374;2023-03-02T10:37:21;100998.82;;;-2.61;100.00
70250;BME280;57644;48.416;-123.374;2023-03-02T10:39:49;100992.23;;;-2.56;100.00
70250;BME280;57644;48.416;-123.374;2023-03-02T10:42:23;100989.17;;;-2.51;100.00
70250;BME280;57644;48.416;-123.374;2023-03-02T10:44:53;100978.88;;;-2.59;100.00
70250;BME280;57644;48.416;-123.374;2023-03-02T10:47:23;100967.21;;;-2.59;100.00
70250;BME280;57644;48.416;-123.374;2023-03-02T10:49:52;100967.84;;;-2.64;100.00
70250;BME280;57644;48.416;-123.374;2023-03-02T10:52:23;100966.48;;;-2.97;100.00
70250;BME280;57644;48.416;-123.374;2023-03-02T10:57:29;100959.32;;;-2.86;100.00
70250;BME280;57644;48.416;-123.374;2023-03-02T10:59:59;100950.70;;;-2.95;100.00
70250;BME280;57644;48.416;-123.374;2023-03-02T11:02:26;100945.23;;;-2.91;100.00
70250;BME280;57644;48.416;-123.374;2023-03-02T11:04:56;100940.21;;;-2.91;100.00
70250;BME280;57644;48.416;-123.374;2023-03-02T11:07:27;100930.21;;;-2.91;100.00
70250;BME280;57644;48.416;-123.374;2023-03-02T11:09:58;100925.21;;;-2.97;100.00
70250;BME280;57644;48.416;-123.374;2023-03-02T11:12:26;100911.97;;;-2.96;100.00
70250;BME280;57644;48.416;-123.374;2023-03-02T11:17:33;100919.85;;;-3.00;100.00
70250;BME280;57644;48.416;-123.374;2023-03-02T11:19:58;100907.48;;;-2.96;100.00
70250;BME280;57644;48.416;-123.374;2023-03-02T11:22:35;100901.53;;;-2.93;100.00
70250;BME280;57644;48.416;-123.374;2023-03-02T11:25:00;100889.34;;;-2.87;100.00
70250;BME280;57644;48.416;-123.374;2023-03-02T11:27:32;100882.86;;;-2.85;100.00
70250;BME280;57644;48.416;-123.374;2023-03-02T11:30:03;100875.98;;;-2.79;100.00
70250;BME280;57644;48.416;-123.374;2023-03-02T11:32:36;100865.26;;;-2.80;100.00
70250;BME280;57644;48.416;-123.374;2023-03-02T11:35:07;100870.11;;;-2.79;100.00
70250;BME280;57644;48.416;-123.374;2023-03-02T11:37:37;100874.94;;;-2.79;100.00
70250;BME280;57644;48.416;-123.374;2023-03-02T11:40:13;100865.57;;;-2.74;100.00
70250;BME280;57644;48.416;-123.374;2023-03-02T11:42:35;100856.41;;;-2.80;100.00
70250;BME280;57644;48.416;-123.374;2023-03-02T11:47:35;100846.24;;;-2.76;100.00
70250;BME280;57644;48.416;-123.374;2023-03-02T11:50:09;100841.29;;;-2.76;100.00
70250;BME280;57644;48.416;-123.374;2023-03-02T11:52:38;100838.70;;;-2.80;100.00
70250;BME280;57644;48.416;-123.374;2023-03-02T11:55:14;100832.62;;;-2.76;100.00
70250;BME280;57644;48.416;-123.374;2023-03-02T11:57:39;100837.52;;;-2.88;100.00
70250;BME280;57644;48.416;-123.374;2023-03-02T12:00:14;100841.26;;;-2.91;100.00
70250;BME280;57644;48.416;-123.374;2023-03-02T12:02:38;100843.31;;;-2.93;100.00
70250;BME280;57644;48.416;-123.374;2023-03-02T12:07:39;100838.70;;;-2.76;100.00
70250;BME280;57644;48.416;-123.374;2023-03-02T12:12:45;100834.20;;;-2.68;100.00
70250;BME280;57644;48.416;-123.374;2023-03-02T12:17:41;100829.93;;;-2.71;100.00
70250;BME280;57644;48.416;-123.374;2023-03-02T12:22:42;100833.60;;;-2.63;100.00
70250;BME280;57644;48.416;-123.374;2023-03-02T12:27:43;100833.22;;;-2.61;100.00
70250;BME280;57644;48.416;-123.374;2023-03-02T12:30:22;100836.75;;;-2.64;100.00
70250;BME280;57644;48.416;-123.374;2023-03-02T12:32:56;100829.04;;;-2.71;100.00
70250;BME280;57644;48.416;-123.374;2023-03-02T12:35:21;100838.09;;;-2.82;100.00
70250;BME280;57644;48.416;-123.374;2023-03-02T12:37:47;100851.05;;;-2.84;100.00
70250;BME280;57644;48.416;-123.374;2023-03-02T12:42:54;100855.44;;;-2.91;100.00
70250;BME280;57644;48.416;-123.374;2023-03-02T12:45:29;100859.17;;;-2.91;100.00
70250;BME280;57644;48.416;-123.374;2023-03-02T12:47:51;100860.71;;;-2.89;100.00
70250;BME280;57644;48.416;-123.374;2023-03-02T12:50:21;100867.25;;;-2.89;100.00
70250;BME280;57644;48.416;-123.374;2023-03-02T12:52:57;100879.80;;;-2.92;100.00
70250;BME280;57644;48.416;-123.374;2023-03-02T12:55:20;100881.11;;;-2.90;100.00
70250;BME280;57644;48.416;-123.374;2023-03-02T12:57:52;100885.78;;;-2.88;100.00